Latest Weather Observations for Casino

IDN60801

Issued at 9:05 am EST Saturday 23 August 2014 (issued every 30 minutes, with the page automatically refreshed every 10 minutes)

About weather observations | Map of weather stations | Latest weather observations for NSW | Other Formats
Station Details ID: 058208 Name: CASINO AIRPORT AWS Lat: -28.88 Lon: 153.06 Height: 20.9 m
Data from the previous 72 hours. | See also: Recent months at Casino
Date/Time
EST
Temp
°C
App
Temp
°C
Dew
Point
Rel
Hum
%
Delta-T
°C
Wind Press
QNH
hPa
Press
MSL
hPa
Rain
since 9 am
mm
Dir
 
Spd
km/h
Gust
km/h
Spd
kts
Gust
kts
23/09:00am 14.2 11.9 13.1 93 0.6 S 17 24 9 13 1026.6 1026.6 41.0
23/08:30am 13.9 12.3 12.8 93 0.6 S 13 19 7 10 1026.4 - 40.6
23/08:00am 13.6 12.7 12.7 94 0.5 S 9 15 5 8 1026.3 1026.3 39.4
23/07:30am 13.4 12.5 12.5 94 0.5 SW 9 11 5 6 1025.6 - 36.6
23/07:00am 13.3 12.0 12.4 94 0.5 SSW 11 15 6 8 1025.6 1025.6 36.2
23/06:30am 13.2 11.8 12.3 94 0.5 ENE 11 17 6 9 1025.5 - 34.4
23/06:00am 13.2 11.8 12.1 93 0.6 S 11 20 6 11 1024.9 1024.9 31.8
23/05:30am 13.4 10.8 12.1 92 0.7 SSW 17 24 9 13 1024.5 - 27.2
23/05:00am 13.2 11.3 11.9 92 0.7 SSW 13 17 7 9 1024.4 1024.4 26.4
23/04:30am 13.1 11.2 11.8 92 0.7 SSW 13 20 7 11 1024.3 - 25.2
23/04:00am 13.1 12.3 11.8 92 0.7 SSW 7 13 4 7 1024.5 1024.5 24.8
23/03:30am 13.2 12.1 11.9 92 0.7 S 9 13 5 7 1024.7 - 23.8
23/03:00am 13.3 11.1 12.0 92 0.7 SSW 15 20 8 11 1024.5 1024.5 22.8
23/02:30am 13.2 10.9 11.9 92 0.7 SSW 15 22 8 12 1024.9 - 21.6
23/02:00am 13.2 12.1 11.8 91 0.7 SSW 9 15 5 8 1025.3 1025.3 19.8
23/01:30am 13.3 13.1 11.9 91 0.8 S 4 11 2 6 1025.7 - 18.2
23/01:00am 13.4 14.0 12.0 91 0.7 CALM 0 0 0 0 1026.0 1026.0 17.2
23/12:30am 13.5 12.0 11.9 90 0.9 S 11 15 6 8 1026.2 - 14.8
23/12:00am 13.5 12.1 12.1 91 0.7 SSW 11 15 6 8 1025.9 1025.9 14.6
 
Date/Time
EST
Temp
°C
App
Temp
°C
Dew
Point
Rel
Hum
%
Delta-T
°C
Wind Press
QNH
hPa
Press
MSL
hPa
Rain
since 9 am
mm
Dir
 
Spd
km/h
Gust
km/h
Spd
kts
Gust
kts
22/11:30pm 13.5 12.0 11.9 90 0.9 SSW 11 17 6 9 1026.0 - 14.4
22/11:00pm 13.6 11.3 11.8 89 1.0 SSW 15 20 8 11 1026.0 1026.0 13.8
22/10:30pm 13.7 11.9 12.1 90 0.9 SSW 13 19 7 10 1026.5 - 13.0
22/10:00pm 13.7 11.8 11.9 89 1.0 SW 13 17 7 9 1026.6 1026.6 11.8
22/09:30pm 13.7 12.3 12.1 90 0.9 SSW 11 15 6 8 1026.4 - 11.6
22/09:00pm 13.5 12.8 12.1 91 0.7 SW 7 9 4 5 1026.6 1026.6 11.4
22/08:30pm 13.6 13.1 12.2 91 0.8 WNW 6 7 3 4 1026.9 - 11.2
22/08:00pm 13.8 13.2 12.4 91 0.8 SSW 7 11 4 6 1026.7 1026.7 10.6
22/07:30pm 13.9 13.9 12.5 91 0.8 W 4 15 2 8 1026.8 - 8.2
22/07:00pm 13.9 13.5 12.3 90 0.9 WSW 6 7 3 4 1026.5 1026.5 7.2
22/06:30pm 14.0 13.5 12.0 88 1.1 NNW 6 7 3 4 1026.2 - 3.2
22/06:00pm 14.5 13.9 11.8 84 1.4 S 6 11 3 6 1025.9 1025.9 3.0
22/05:30pm 15.1 13.2 11.7 80 1.8 SSW 13 20 7 11 1025.1 - 2.0
22/05:00pm 15.5 13.2 11.9 79 1.9 S 15 24 8 13 1025.0 1025.0 2.0
22/04:30pm 15.7 13.1 11.9 78 2.1 S 17 22 9 12 1025.0 - 2.0
22/04:00pm 15.9 12.9 12.1 78 2.1 S 19 26 10 14 1025.1 1025.1 2.0
22/03:30pm 15.7 12.9 12.6 82 1.7 S 19 26 10 14 1025.0 - 1.8
22/03:00pm 15.6 13.5 12.5 82 1.7 S 15 20 8 11 1025.2 1025.2 1.8
22/02:30pm 15.7 13.2 12.3 80 1.9 S 17 22 9 12 1025.4 - 1.8
22/02:00pm 15.6 12.8 12.5 82 1.7 S 19 24 10 13 1025.6 1025.6 1.8
22/01:30pm 15.5 12.5 11.9 79 2.0 S 19 26 10 14 1026.0 - 1.8
22/01:00pm 15.9 12.8 12.3 79 2.0 S 20 30 11 16 1026.0 1026.0 1.8
22/12:30pm 15.7 12.6 12.3 80 1.9 S 20 32 11 17 1026.5 - 1.8
22/12:00pm 15.8 13.0 12.5 81 1.8 S 19 28 10 15 1027.0 1027.0 1.8
22/11:30am 15.3 12.8 12.4 83 1.6 S 17 24 9 13 1027.4 - 1.8
22/11:00am 15.2 12.3 12.3 83 1.6 S 19 24 10 13 1027.8 1027.8 1.8
22/10:30am 14.9 12.6 12.9 88 1.1 S 17 24 9 13 1028.0 - 1.8
22/10:00am 13.8 12.1 12.4 91 0.8 S 13 17 7 9 1028.3 1028.3 1.6
22/09:30am 13.7 11.9 12.1 90 0.9 S 13 17 7 9 1028.2 - 1.0
22/09:00am 13.7 11.4 11.7 88 1.1 SSW 15 19 8 10 1028.0 1028.0 1.2
22/08:30am 13.3 11.3 11.4 88 1.0 SSW 13 19 7 10 1027.9 - 1.2
22/08:00am 12.9 10.4 11.1 89 0.9 SSW 15 24 8 13 1027.6 1027.6 1.2
22/07:30am 12.8 10.0 11.2 90 0.8 S 17 26 9 14 1027.4 - 1.2
22/07:00am 12.7 10.5 10.8 88 1.0 S 13 20 7 11 1027.3 1027.3 1.0
22/06:30am 12.8 10.4 10.2 84 1.3 SSW 13 17 7 9 1026.8 - 0.6
22/06:00am 12.6 9.8 10.0 84 1.3 S 15 20 8 11 1026.0 1026.0 0.6
22/05:30am 12.8 10.8 10.2 84 1.3 SSW 11 17 6 9 1026.0 - 0.6
22/05:00am 12.6 11.0 10.1 85 1.3 SSW 9 13 5 7 1025.7 1025.7 0.6
22/04:30am 12.4 9.9 9.8 84 1.3 S 13 20 7 11 1025.0 - 0.6
22/04:00am 12.5 10.8 9.9 84 1.3 S 9 15 5 8 1025.6 1025.6 0.6
22/03:30am 12.7 10.6 9.9 83 1.4 SSW 11 15 6 8 1025.4 - 0.6
22/03:00am 12.8 10.8 10.2 84 1.3 S 11 15 6 8 1025.3 1025.3 0.6
22/02:30am 12.6 12.0 10.3 86 1.2 SW 4 7 2 4 1025.8 - 0.6
22/02:00am 12.2 11.1 9.9 86 1.2 ESE 6 9 3 5 1025.8 1025.8 0.6
22/01:30am 12.8 11.3 10.5 86 1.2 S 9 15 5 8 1026.1 - 0.6
22/01:00am 12.2 10.6 10.1 87 1.1 S 9 13 5 7 1026.1 1026.1 0.6
22/12:30am 12.2 12.0 10.6 90 0.8 WSW 2 11 1 6 1026.4 - 0.6
22/12:00am 12.1 12.2 10.3 89 0.9 CALM 0 0 0 0 1026.5 1026.5 0.6
 
Date/Time
EST
Temp
°C
App
Temp
°C
Dew
Point
Rel
Hum
%
Delta-T
°C
Wind Press
QNH
hPa
Press
MSL
hPa
Rain
since 9 am
mm
Dir
 
Spd
km/h
Gust
km/h
Spd
kts
Gust
kts
21/11:30pm 12.3 11.7 10.5 89 0.9 SSE 4 7 2 4 1026.0 - 0.6
21/11:00pm 12.9 11.9 11.1 89 0.9 WNW 7 11 4 6 1026.7 1026.7 0.6
21/10:30pm 12.8 12.5 11.4 91 0.7 WSW 4 9 2 5 1026.5 - 0.6
21/10:00pm 12.7 11.4 11.4 92 0.7 NNW 9 9 5 5 1026.8 1026.8 0.4
21/09:30pm 11.3 10.9 9.6 89 0.9 NW 2 9 1 5 1026.3 - 0.4
21/09:00pm 12.6 11.2 10.8 89 0.9 SW 9 11 5 6 1026.1 1026.1 0.4
21/08:30pm 13.1 11.8 11.3 89 1.0 SSW 9 13 5 7 1026.2 - 0.4
21/08:00pm 13.2 11.9 11.4 89 0.9 S 9 11 5 6 1026.3 1026.3 0.4
21/07:30pm 13.5 12.6 11.4 87 1.1 SSE 7 13 4 7 1025.9 - 0.2
21/07:00pm 14.2 12.6 11.7 85 1.3 SSE 11 19 6 10 1025.8 1025.8 0.0
21/06:30pm 14.6 13.0 11.4 81 1.7 SSE 11 20 6 11 1025.5 - 0.0
21/06:00pm 15.2 12.7 11.2 77 2.1 SE 15 24 8 13 1025.1 1025.1 0.0
21/05:30pm 15.7 12.9 11.3 75 2.4 SE 17 26 9 14 1024.7 - 0.0
21/05:00pm 16.3 12.8 11.0 71 2.8 SE 20 30 11 16 1024.2 1024.2 0.0
21/04:30pm 17.1 13.8 11.6 70 3.0 SE 20 28 11 15 1023.7 - 0.0
21/04:00pm 17.5 13.7 11.3 67 3.3 SE 22 32 12 17 1023.4 1023.4 0.0
21/03:30pm 18.0 14.7 11.6 66 3.5 SE 20 30 11 16 1023.1 - 0.0
21/03:00pm 18.9 15.8 11.7 63 3.9 SSE 19 28 10 15 1023.0 1023.0 0.0
21/02:30pm 17.9 15.5 11.5 66 3.5 SSE 15 22 8 12 1023.0 - 0.0
21/02:00pm 16.1 12.3 12.3 78 2.1 SE 24 32 13 17 1023.5 1023.5 0.0
21/01:30pm 18.5 14.1 11.6 64 3.8 ESE 26 37 14 20 1023.4 - 0.0
21/01:00pm 18.3 15.3 11.8 66 3.6 SE 19 30 10 16 1023.4 1023.4 0.0
21/12:30pm 19.4 16.6 10.1 55 5.0 ESE 15 26 8 14 1023.7 - 0.0
21/12:00pm 18.4 16.2 10.7 61 4.1 SSE 13 22 7 12 1024.3 1024.3 0.0
21/11:30am 18.7 15.9 10.0 57 4.6 SSE 15 26 8 14 1024.7 - 0.0
21/11:00am 19.1 16.8 10.6 58 4.6 S 13 19 7 10 1025.0 1025.0 0.0
21/10:30am 18.8 15.8 9.3 54 5.0 SSE 15 22 8 12 1025.2 - 0.0
21/10:00am 17.0 13.9 8.7 58 4.2 S 15 24 8 13 1025.4 1025.4 0.0
21/09:30am 16.7 13.7 9.4 62 3.8 S 15 20 8 11 1025.6 - 0.0
21/09:00am 15.7 13.5 9.4 66 3.2 SSW 11 15 6 8 1025.5 1025.5 0.4
21/08:30am 15.2 14.3 10.6 74 2.4 WNW 6 9 3 5 1025.5 - 0.4
21/08:00am 14.3 13.2 10.5 78 2.0 WNW 7 11 4 6 1025.5 1025.5 0.4
21/07:30am 13.3 12.7 10.5 83 1.5 NW 4 11 2 6 1025.1 - 0.4
21/07:00am 12.6 12.4 10.3 86 1.2 W 2 6 1 3 1025.1 1025.1 0.4
21/06:30am 12.1 10.5 10.2 88 1.0 NW 9 11 5 6 1024.8 - 0.4
21/06:00am 11.9 12.0 10.1 89 0.9 CALM 0 0 0 0 1024.6 1024.6 0.4
21/05:30am 12.0 12.1 10.2 89 0.9 CALM 0 0 0 0 1024.3 - 0.4
21/05:00am 11.8 11.8 9.9 88 1.0 CALM 0 0 0 0 1023.7 1023.7 0.4
21/04:30am 11.9 10.8 10.0 88 1.0 NW 6 7 3 4 1023.6 - 0.4
21/04:00am 11.9 11.8 9.6 86 1.2 CALM 0 4 0 2 1023.6 1023.6 0.4
21/03:30am 12.0 10.8 9.4 84 1.3 N 6 9 3 5 1023.7 - 0.2
21/03:00am 12.4 11.0 9.4 82 1.5 N 7 9 4 5 1023.5 1023.5 0.0
21/02:30am 12.7 12.4 8.6 76 2.0 CALM 0 0 0 0 1023.4 - 0.0
21/02:00am 13.2 11.6 7.9 70 2.6 W 6 7 3 4 1023.4 1023.4 0.0
21/01:30am 13.5 11.8 7.7 68 2.9 WSW 6 6 3 3 1023.6 - 0.0
21/01:00am 13.4 11.6 8.0 70 2.7 WSW 7 9 4 5 1023.8 1023.8 0.0
21/12:30am 13.7 11.9 7.9 68 2.9 WSW 7 9 4 5 1023.7 - 0.0
21/12:00am 13.5 11.5 8.8 73 2.4 SW 9 11 5 6 1023.8 1023.8 0.0
 
Date/Time
EST
Temp
°C
App
Temp
°C
Dew
Point
Rel
Hum
%
Delta-T
°C
Wind Press
QNH
hPa
Press
MSL
hPa
Rain
since 9 am
mm
Dir
 
Spd
km/h
Gust
km/h
Spd
kts
Gust
kts
20/11:30pm 13.3 11.5 9.4 77 2.0 WSW 9 11 5 6 1023.6 - 0.0
20/11:00pm 12.4 11.1 9.1 80 1.7 WSW 6 9 3 5 1023.6 1023.6 0.0
20/10:30pm 12.7 11.2 9.2 79 1.8 SW 7 9 4 5 1023.6 - 0.0
20/10:00pm 13.2 11.9 10.0 81 1.6 WSW 7 9 4 5 1023.7 1023.7 0.0
20/09:30pm 12.4 12.2 9.1 80 1.7 CALM 0 7 0 4 1023.6 - 0.0
20/09:00pm 13.1 13.2 10.1 82 1.5 CALM 0 0 0 0 1023.4 1023.4 0.0
20/08:30pm 12.5 12.2 8.6 77 1.9 CALM 0 0 0 0 1023.5 - 0.0
20/08:00pm 13.5 12.5 9.0 74 2.3 S 4 7 2 4 1023.1 1023.1 0.0
20/07:30pm 14.3 12.4 9.1 71 2.6 SSE 9 13 5 7 1022.6 - 0.0
20/07:00pm 14.4 12.9 9.0 70 2.7 SSE 7 11 4 6 1022.2 1022.2 0.0
20/06:30pm 14.6 12.6 8.5 67 3.1 SSE 9 17 5 9 1021.8 - 0.0
20/06:00pm 15.2 12.3 8.0 62 3.6 SE 13 19 7 10 1021.5 1021.5 0.0
20/05:30pm 16.3 13.8 8.0 58 4.2 SE 11 20 6 11 1021.0 - 0.0
20/05:00pm 17.7 13.5 8.3 54 4.8 SE 20 30 11 16 1020.5 1020.5 0.0
20/04:30pm 19.2 15.2 9.1 52 5.3 ESE 20 26 11 14 1019.9 - 0.0
20/04:00pm 20.2 15.6 8.2 46 6.2 SE 22 30 12 16 1019.6 1019.5 0.0
20/03:30pm 20.3 16.7 8.3 46 6.3 ESE 17 28 9 15 1019.2 - 0.0
20/03:00pm 19.8 16.9 8.2 47 6.0 SSE 13 19 7 10 1019.0 1018.9 0.0
20/02:30pm 21.2 17.5 9.4 47 6.3 SE 19 26 10 14 1019.0 - 0.0
20/02:00pm 20.0 16.5 8.7 48 5.9 SE 17 28 9 15 1019.1 1019.0 0.0
20/01:30pm 20.0 16.6 7.7 45 6.3 SE 15 20 8 11 1019.3 - 0.0
20/01:00pm 19.7 16.0 8.1 47 6.0 S 17 30 9 16 1019.2 1019.1 0.0
20/12:30pm 19.4 15.7 7.8 47 6.0 SSE 17 24 9 13 1019.6 - 0.0
20/12:00pm 20.2 16.1 8.5 47 6.1 SE 20 32 11 17 1020.1 1020.1 0.0
20/11:30am 20.0 16.7 9.6 51 5.5 SSW 17 20 9 11 1020.6 - 0.0
20/11:00am 19.8 16.8 9.1 50 5.6 SSE 15 28 8 15 1020.9 1020.9 0.0
20/10:30am 18.5 15.4 9.0 54 5.0 SSW 15 28 8 15 1021.0 - 0.0
20/10:00am 18.0 16.7 10.1 60 4.2 SSW 7 15 4 8 1021.1 1021.1 0.0
20/09:30am 17.1 15.6 10.7 66 3.4 W 9 13 5 7 1021.1 - 0.0

Other Formats:

Comma delimited format used in spreadsheet applications
http://www.bom.gov.au/fwo/IDN60801/IDN60801.94573.axf

JavaScript Object Notation format (JSON) in row-major order
http://www.bom.gov.au/fwo/IDN60801/IDN60801.94573.json